FW8143 Weather Reports


time (UTC)temp
F
wind
direction
speed
knots
gust
knots
rain 1hr
in
rain 24hr
in
rain mn
in
humidity
%
barometer
mb
20240420173957 58 194 8.7 16.5 0.00 0.00 0.00 43 1027.3
20240420173451 58 192 8.7 13.9 0.00 0.00 0.00 43 1027.4
20240420172946 58 225 8.7 14.8 0.00 0.00 0.00 44 1027.3
20240420172441 59 195 8.7 14.8 0.00 0.00 0.00 42 1027.4
20240420171933 58 207 7.8 14.8 0.00 0.00 0.00 44 1027.4
20240420171427 58 206 7.8 14.8 0.00 0.00 0.00 43 1027.4
20240420170921 58 239 7.0 13.0 0.00 0.00 0.00 43 1027.4
20240420170415 58 223 7.0 13.0 0.00 0.00 0.00 43 1027.4
20240420170411 58 243 7.0 11.3 0.00 0.00 0.00 43 1027.6
20240420165404 58 249 6.1 12.2 0.00 0.00 0.00 44 1027.6
20240420164858 58 191 5.2 12.2 0.00 0.00 0.00 44 1027.4
20240420164624 57 155 5.2 12.2 0.00 0.00 0.00 44 1027.6
20240420163845 57 174 4.3 10.4 0.00 0.00 0.00 44 1027.6
20240420163339 56 196 6.1 12.2 0.00 0.00 0.00 45 1027.6
20240420162834 56 130 7.0 12.2 0.00 0.00 0.00 47 1027.6
20240420162328 56 143 7.0 13.9 0.00 0.00 0.00 49 1027.4
20240420162054 55 123 7.0 13.9 0.00 0.00 0.00 50 1027.6
20240420161317 54 173 5.2 13.9 0.00 0.00 0.00 52 1027.4
20240420160809 53 185 4.3 9.6 0.00 0.00 0.00 53 1027.4
20240420160303 52 159 5.2 9.6 0.00 0.00 0.00 55 1027.6
20240420155757 51 252 6.1 10.4 0.00 0.00 0.00 55 1027.6
20240420155253 51 125 7.0 12.2 0.00 0.00 0.00 54 1027.4
20240420154746 51 128 7.8 13.9 0.00 0.00 0.00 55 1027.6
20240420154240 50 130 8.7 17.4 0.00 0.00 0.00 56 1027.6
20240420153735 50 107 7.0 17.4 0.00 0.00 0.00 56 1027.4
20240420153227 50 174 4.3 10.4 0.00 0.00 0.00 58 1027.6
20240420152954 50 148 4.3 9.6 0.00 0.00 0.00 60 1027.6
20240420152446 49 169 5.2 9.6 0.00 0.00 0.00 60 1027.6
20240420151710 49 134 5.2 9.6 0.00 0.00 0.00 63 1027.6
20240420151436 48 88 5.2 12.2 0.00 0.00 0.00 64 1027.6
20240420150658 47 130 6.1 12.2 0.00 0.00 0.00 65 1027.7
20240420150152 47 107 6.1 11.3 0.00 0.00 0.00 66 1027.7
20240420145647 46 137 7.0 11.3 0.00 0.00 0.00 67 1027.4
20240420145140 46 132 7.0 13.0 0.00 0.00 0.00 68 1027.4
20240420144907 45 154 6.1 12.2 0.00 0.00 0.00 69 1027.6
20240420144129 45 141 5.2 9.6 0.00 0.00 0.00 69 1027.7
20240420143626 45 189 5.2 9.6 0.00 0.00 0.00 69 1027.7
20240420143356 45 134 6.1 11.3 0.00 0.00 0.00 69 1027.6
20240420142627 44 126 7.0 13.9 0.00 0.00 0.00 69 1027.6
20240420142127 44 166 7.0 13.9 0.00 0.00 0.00 69 1027.4
20240420141626 44 161 8.7 15.6 0.00 0.00 0.00 70 1027.4
20240420141126 44 128 8.7 15.6 0.00 0.00 0.00 70 1027.4
20240420140626 44 144 7.8 13.9 0.00 0.00 0.00 71 1027.6
20240420140126 43 147 5.2 11.3 0.00 0.00 0.00 72 1027.6
20240420135627 43 92 5.2 13.0 0.00 0.00 0.00 72 1027.6
20240420135127 43 185 5.2 15.6 0.00 0.00 0.00 72 1027.6
20240420134858 43 156 7.0 15.6 0.00 0.00 0.00 72 1027.3
20240420134126 43 191 7.8 15.6 0.00 0.00 0.00 72 1026.9
20240420133621 43 148 8.7 17.4 0.00 0.00 0.00 72 1026.8
20240420133123 42 102 9.6 20.0 0.00 0.00 0.00 72 1026.7
20240420132621 42 141 9.6 20.0 0.00 0.00 0.00 73 1026.7
20240420132122 42 171 9.6 19.1 0.00 0.00 0.00 73 1026.5
20240420131621 42 115 9.6 16.5 0.00 0.00 0.00 73 1026.5
20240420131122 42 103 11.3 22.6 0.00 0.00 0.00 73 1026.5
20240420130622 42 149 9.6 22.6 0.00 0.00 0.00 73 1026.7
20240420130123 42 221 8.7 18.2 0.00 0.00 0.00 73 1026.8
20240420125623 42 134 10.4 21.7 0.00 0.00 0.00 73 1026.8
20240420125119 42 108 10.4 21.7 0.00 0.00 0.00 73 1026.7
20240420124617 42 113 11.3 20.0 0.00 0.00 0.00 73 1026.7
20240420124118 42 135 11.3 19.1 0.00 0.00 0.00 73 1026.8
20240420123618 42 96 10.4 18.2 0.00 0.00 0.00 72 1026.7
20240420123348 42 122 9.6 18.2 0.00 0.00 0.00 72 1026.7
20240420122617 43 141 9.6 20.0 0.00 0.00 0.00 72 1026.8
20240420122117 43 100 9.6 20.0 0.00 0.00 0.00 72 1026.7
20240420121618 43 148 9.6 17.4 0.00 0.00 0.00 72 1026.5
20240420121117 43 148 9.6 17.4 0.00 0.00 0.00 72 1026.5
20240420120613 43 140 8.7 14.8 0.00 0.00 0.00 72 1026.5
20240420120114 43 126 9.6 22.6 0.00 0.00 0.00 71 1026.5
20240420115613 43 122 9.6 22.6 0.00 0.00 0.00 71 1026.4
20240420115114 43 120 8.7 17.4 0.00 0.00 0.00 71 1026.2
20240420114845 43 142 7.8 15.6 0.00 0.00 0.00 70 1026.2
20240420114114 43 140 7.8 16.5 0.00 0.00 0.00 70 1025.8
20240420113614 43 115 9.6 18.2 0.00 0.00 0.00 70 1025.7
20240420113113 43 107 8.7 18.2 0.00 0.00 0.00 69 1025.5
20240420112612 44 139 9.6 16.5 0.00 0.00 0.00 69 1025.4
20240420112112 44 109 10.4 23.5 0.00 0.00 0.00 68 1025.4
20240420111611 44 119 11.3 23.5 0.00 0.00 0.00 68 1025.2
20240420111109 44 95 10.4 24.3 0.00 0.00 0.00 68 1025.2
20240420110611 44 123 10.4 24.3 0.00 0.00 0.00 68 1025.0
20240420110109 44 103 10.4 22.6 0.00 0.00 0.00 67 1024.9
20240420105609 44 82 8.7 22.6 0.00 0.00 0.00 67 1025.0
20240420105108 45 123 7.8 16.5 0.00 0.00 0.00 67 1024.9
20240420104602 45 136 7.8 16.5 0.00 0.00 0.00 67 1024.9
20240420104328 45 132 7.0 14.8 0.00 0.00 0.00 67 1025.3
20240420103550 45 119 7.8 15.6 0.00 0.00 0.00 68 1025.2
20240420103044 45 117 9.6 17.4 0.00 0.00 0.00 68 1025.4
20240420102540 45 120 8.7 21.7 0.00 0.00 0.00 68 1025.3
20240420102033 45 106 9.6 21.7 0.00 0.00 0.00 68 1025.4
20240420101527 45 157 10.4 19.1 0.00 0.00 0.00 68 1025.2
20240420101021 45 123 9.6 20.9 0.00 0.00 0.00 68 1025.5
20240420100515 45 157 9.6 20.9 0.00 0.00 0.00 67 1025.4
20240420100240 45 134 10.4 22.6 0.00 0.00 0.00 67 1025.4
20240420095503 45 143 10.4 22.6 0.00 0.00 0.00 67 1025.2
20240420094957 45 142 10.4 21.7 0.00 0.00 0.00 66 1025.0
20240420094450 46 84 10.4 23.5 0.00 0.00 0.00 66 1025.0
20240420093944 46 170 7.8 23.5 0.00 0.00 0.00 66 1024.4
20240420093439 46 253 6.1 22.6 0.00 0.00 0.00 66 1024.7
20240420092934 46 175 7.0 22.6 0.00 0.00 0.00 65 1024.5
20240420092426 46 58 6.1 18.2 0.00 0.00 0.00 65 1024.7
20240420091922 46 180 7.0 18.2 0.00 0.00 0.00 64 1024.8
20240420091415 46 355 9.6 19.1 0.00 0.00 0.00 64 1024.7
20240420090909 46 153 8.7 19.1 0.00 0.00 0.00 64 1024.7
20240420090403 46 106 7.0 16.5 0.00 0.00 0.00 64 1024.9
20240420085858 46 100 6.1 18.2 0.00 0.00 0.00 63 1024.9
20240420085623 46 54 6.1 15.6 0.00 0.00 0.00 63 1024.7
20240420084846 47 186 7.0 17.4 0.00 0.00 0.00 63 1024.8
20240420084338 47 214 7.8 20.0 0.00 0.00 0.00 63 1024.5
20240420083832 47 155 6.1 20.0 0.00 0.00 0.00 63 1024.9
20240420083327 47 327 7.0 17.4 0.00 0.00 0.00 62 1024.8
20240420082821 47 85 7.0 17.4 0.00 0.00 0.00 62 1024.8
20240420082545 47 155 6.1 18.2 0.00 0.00 0.00 61 1024.7
20240420081808 47 142 7.0 18.2 0.00 0.00 0.00 61 1024.7
20240420081303 47 318 7.0 17.4 0.00 0.00 0.00 61 1024.4
20240420080757 48 164 5.2 17.4 0.00 0.00 0.00 60 1024.5
20240420080252 48 121 6.1 15.6 0.00 0.00 0.00 60 1024.3
20240420080248 48 90 5.2 15.6 0.00 0.00 0.00 60 1024.5
20240420075239 48 270 6.1 15.6 0.00 0.00 0.00 60 1023.8
20240420074733 48 241 7.0 22.6 0.00 0.00 0.00 60 1024.3
20240420074729 48 90 6.1 22.6 0.00 0.00 0.00 60 1024.5
20240420073720 48 32 7.8 24.3 0.00 0.00 0.00 60 1024.3
20240420073214 48 87 10.4 24.3 0.00 0.00 0.00 60 1024.2
20240420072708 48 97 9.6 23.5 0.00 0.00 0.00 60 1024.3
20240420072203 48 181 8.7 23.5 0.00 0.00 0.00 60 1024.0
20240420071928 49 320 9.6 22.6 0.00 0.00 0.00 61 1024.2
20240420071151 49 127 12.2 26.1 0.00 0.00 0.00 61 1024.2
20240420070644 49 64 13.0 27.8 0.00 0.00 0.00 61 1024.2
20240420070138 49 103 12.2 27.8 0.00 0.00 0.00 61 1024.3
20240420065634 49 113 12.2 22.6 0.00 0.00 0.00 61 1024.4
20240420065359 49 68 12.2 23.5 0.00 0.00 0.00 61 1024.5
20240420064623 49 142 11.3 23.5 0.00 0.00 0.00 61 1024.8
20240420064617 50 100 9.6 21.7 0.00 0.00 0.00 61 1024.3
20240420063610 50 107 11.3 26.1 0.00 0.00 0.00 60 1024.5
20240420063333 50 86 12.2 26.1 0.00 0.00 0.00 60 1024.4
20240420062559 50 180 12.2 26.1 0.00 0.00 0.00 60 1023.9
20240420062059 50 12 12.2 28.7 0.00 0.00 0.00 60 1024.0
20240420061559 50 49 13.0 29.5 0.00 0.00 0.00 59 1023.9
20240420061329 50 66 14.8 29.5 0.00 0.00 0.00 59 1023.5
20240420060559 50 70 16.5 30.4 0.00 0.00 0.00 58 1023.2
20240420060100 51 123 17.4 30.4 0.00 0.00 0.00 58 1023.3
20240420055832 51 103 14.8 30.4 0.00 0.00 0.00 57 1023.0
20240420055331 51 82 12.2 22.6 0.00 0.00 0.00 56 1023.3
20240420054559 51 87 11.3 27.8 0.00 0.00 0.00 56 1023.5
20240420054059 52 92 11.3 27.8 0.00 0.00 0.00 55 1023.3
20240420053559 52 90 10.4 27.8 0.00 0.00 0.00 54 1023.3
20240420053100 52 119 9.6 23.5 0.00 0.00 0.00 53 1023.8
20240420052559 53 140 9.6 23.5 0.00 0.00 0.00 53 1023.5
20240420052059 53 125 10.4 20.9 0.00 0.00 0.00 52 1023.4
20240420051559 53 96 9.6 25.2 0.00 0.00 0.00 51 1023.4
20240420051059 54 116 7.8 25.2 0.00 0.00 0.00 50 1023.5
20240420050559 54 130 7.8 19.1 0.00 0.00 0.00 49 1023.3
20240420050052 54 138 7.0 19.1 0.00 0.00 0.00 48 1023.5
20240420045818 55 85 7.0 17.4 0.00 0.00 0.00 47 1023.4
20240420045041 55 46 7.8 17.4 0.00 0.00 0.00 46 1023.3
20240420044535 55 163 7.8 18.2 0.00 0.00 0.00 46 1023.3
20240420044028 55 182 7.0 18.2 0.00 0.00 0.00 44 1023.2
20240420043524 55 64 5.2 13.9 0.00 0.00 0.00 43 1023.2
20240420043017 55 97 4.3 10.4 0.00 0.00 0.00 44 1023.2
20240420042510 56 343 4.3 11.3 0.00 0.00 0.00 43 1023.2
20240420042005 56 50 7.0 21.7 0.00 0.00 0.00 44 1023.4
20240420041459 56 48 10.4 21.7 0.00 0.00 0.00 44 1023.5
20240420040953 56 140 10.4 20.0 0.00 0.00 0.00 45 1023.4
20240420040718 56 92 5.2 17.4 0.00 0.00 0.00 44 1023.5
20240420035940 56 123 3.5 11.3 0.00 0.00 0.00 43 1023.5
20240420035436 56 32 3.5 11.3 0.00 0.00 0.00 42 1023.5
20240420034930 56 49 3.5 10.4 0.00 0.00 0.00 43 1023.5
20240420034925 57 325 4.3 12.2 0.00 0.00 0.00 43 1023.8
20240420033916 57 60 5.2 13.9 0.00 0.00 0.00 43 1023.8
20240420033410 57 74 5.2 13.9 0.00 0.00 0.00 42 1023.7
20240420032905 57 195 4.3 12.2 0.00 0.00 0.00 41 1023.5
20240420032359 57 134 4.3 11.3 0.00 0.00 0.00 41 1023.4
20240420031853 57 90 4.3 11.3 0.00 0.00 0.00 40 1023.3
20240420031347 58 40 4.3 15.6 0.00 0.00 0.00 40 1023.2
20240420030842 58 52 4.3 15.6 0.00 0.00 0.00 40 1023.2
20240420030334 58 163 5.2 13.9 0.00 0.00 0.00 40 1023.2
20240420030101 58 54 4.3 15.6 0.00 0.00 0.00 39 1023.0
20240420025323 59 82 3.5 15.6 0.00 0.00 0.00 39 1022.9
20240420024816 59 190 5.2 15.6 0.00 0.00 0.00 38 1022.9
20240420024311 59 102 7.0 16.5 0.00 0.00 0.00 37 1022.9
20240420023804 60 83 7.8 20.9 0.00 0.00 0.00 35 1022.8
20240420023259 60 117 7.8 20.9 0.00 0.00 0.00 34 1022.6
20240420022753 61 109 6.1 12.2 0.00 0.00 0.00 30 1022.6
20240420022246 62 82 5.2 11.3 0.00 0.00 0.00 24 1022.4
20240420022011 63 107 2.6 9.6 0.00 0.00 0.00 19 1022.3
20240420021736 64 131 1.7 3.5 0.00 0.00 0.00 19 1022.3
20240420020728 64 114 1.7 3.5 0.00 0.00 0.00 19 1022.1
20240420020222 65 117 1.7 3.5 0.00 0.00 0.00 19 1022.3
20240420015718 65 98 1.7 3.5 0.00 0.00 0.00 18 1022.3
20240420015211 65 117 1.7 3.5 0.00 0.00 0.00 18 1022.3
20240420014936 66 153 1.7 4.3 0.00 0.00 0.00 18 1022.3
20240420014201 66 167 2.6 5.2 0.00 0.00 0.00 17 1022.1
20240420013652 67 173 3.5 5.2 0.00 0.00 0.00 17 1022.1
20240420013147 67 189 2.6 5.2 0.00 0.00 0.00 17 1022.3
20240420012641 67 208 1.7 4.3 0.00 0.00 0.00 17 1022.1
20240420012136 68 182 2.6 6.1 0.00 0.00 0.00 17 1022.1
20240420011629 68 155 2.6 6.1 0.00 0.00 0.00 16 1022.1
20240420011131 68 198 2.6 7.0 0.00 0.00 0.00 16 1022.1
20240420010629 68 233 2.6 7.0 0.00 0.00 0.00 16 1022.1
20240420010129 69 250 3.5 8.7 0.00 0.00 0.00 16 1022.1
20240420005628 69 211 4.3 8.7 0.00 0.00 0.00 16 1022.1
20240420005124 69 248 3.5 9.6 0.00 0.00 0.00 16 1022.1
20240420004624 69 226 2.6 9.6 0.00 0.00 0.00 16 1022.1
20240420004125 70 204 3.5 7.8 0.00 0.00 0.00 16 1022.1
20240420003625 70 275 4.3 11.3 0.00 0.00 0.00 16 1022.1
20240420003125 70 225 4.3 11.3 0.00 0.00 0.00 15 1022.1
20240420002625 70 209 4.3 8.7 0.00 0.00 0.00 15 1022.1
20240420002124 70 230 6.1 10.4 0.00 0.00 0.00 15 1022.1
20240420001622 70 225 7.0 13.9 0.00 0.00 0.00 15 1022.3
20240420001130 70 242 6.1 14.8 0.00 0.00 0.00 16 1022.3
20240420001124 70 242 6.1 14.8 0.00 0.00 0.00 15 1022.3
20240420000123 70 286 7.0 14.8 0.00 0.00 0.00 16 1022.3
20240419235622 70 267 7.0 14.8 0.00 0.00 0.00 15 1022.4
20240419235124 70 229 7.8 13.9 0.00 0.00 0.00 15 1022.4
20240419234619 70 238 8.7 18.2 0.00 0.00 0.00 15 1022.4
20240419234119 70 250 9.6 18.2 0.00 0.00 0.00 15 1022.4
20240419233850 70 223 9.6 16.5 0.00 0.00 0.00 15 1022.5
20240419233120 71 288 7.8 16.5 0.00 0.00 0.00 15 1022.4
20240419232621 71 228 7.8 15.6 0.00 0.00 0.00 15 1022.5
20240419232617 71 220 7.8 15.6 0.00 0.00 0.00 16 1022.5
20240419231847 71 205 7.0 15.6 0.00 0.00 0.00 15 1022.4
20240419231118 71 252 8.7 17.4 0.00 0.00 0.00 15 1022.5
20240419230847 71 274 9.6 17.4 0.00 0.00 0.00 15 1022.5
20240419230119 71 178 7.8 17.4 0.00 0.00 0.00 14 1022.6
20240419225612 71 288 8.7 20.0 0.00 0.00 0.00 14 1022.5
20240419225343 71 230 10.4 20.0 0.00 0.00 0.00 14 1022.6
20240419224843 71 234 9.6 17.4 0.00 0.00 0.00 14 1022.6
20240419224114 71 189 7.8 17.4 0.00 0.00 0.00 14 1022.5
20240419223614 71 245 8.7 15.6 0.00 0.00 0.00 14 1022.5
20240419223114 71 177 10.4 16.5 0.00 0.00 0.00 14 1022.6
20240419222614 71 282 9.6 17.4 0.00 0.00 0.00 13 1022.6
20240419222113 72 209 8.7 17.4 0.00 0.00 0.00 13 1022.6
20240419221613 71 267 7.0 16.5 0.00 0.00 0.00 13 1022.6
20240419221109 71 257 7.8 15.6 0.00 0.00 0.00 15 1022.8
20240419220839 71 270 8.7 16.5 0.00 0.00 0.00 15 1022.8
20240419220108 71 247 8.7 16.5 0.00 0.00 0.00 14 1022.9
20240419215610 71 267 9.6 21.7 0.00 0.00 0.00 15 1022.9
20240419215108 71 279 9.6 21.7 0.00 0.00 0.00 14 1022.8
20240419214609 71 189 9.6 17.4 0.00 0.00 0.00 13 1023.0
20240419214108 71 161 7.8 17.4 0.00 0.00 0.00 13 1023.2
20240419213608 71 261 7.0 16.5 0.00 0.00 0.00 15 1023.0
20240419213109 71 194 9.6 18.2 0.00 0.00 0.00 14 1023.3
20240419212608 71 240 8.7 19.1 0.00 0.00 0.00 14 1023.3
20240419212102 70 247 7.0 19.1 0.00 0.00 0.00 14 1023.3
20240419211554 70 224 7.8 15.6 0.00 0.00 0.00 14 1023.3
20240419211053 70 291 8.7 18.2 0.00 0.00 0.00 14 1023.5
20240419210549 70 256 7.8 18.2 0.00 0.00 0.00 20 1023.7
20240419210046 70 191 7.8 13.9 0.00 0.00 0.00 20 1023.5
20240419205545 70 215 5.2 13.9 0.00 0.00 0.00 21 1023.7
20240419205044 70 266 5.2 15.6 0.00 0.00 0.00 20 1023.8
20240419204544 70 246 5.2 15.6 0.00 0.00 0.00 20 1023.9
20240419204043 70 273 4.3 13.9 0.00 0.00 0.00 20 1024.0
20240419203543 70 149 7.8 14.8 0.00 0.00 0.00 23 1024.0
20240419203042 70 218 8.7 21.7 0.00 0.00 0.00 22 1024.2
20240419202541 70 229 6.1 21.7 0.00 0.00 0.00 22 1024.2
20240419202040 69 184 5.2 12.2 0.00 0.00 0.00 23 1024.2
20240419201541 69 308 5.2 12.2 0.00 0.00 0.00 21 1024.3
20240419201040 69 283 5.2 16.5 0.00 0.00 0.00 21 1024.3
20240419200540 68 144 7.8 19.1 0.00 0.00 0.00 22 1024.4
20240419200312 69 194 7.0 19.1 0.00 0.00 0.00 21 1024.4
20240419195540 68 202 6.1 14.8 0.00 0.00 0.00 21 1024.5
20240419195041 68 148 7.0 19.1 0.00 0.00 0.00 20 1024.7
20240419194534 68 71 7.0 19.1 0.00 0.00 0.00 18 1024.8
20240419194028 69 236 7.0 16.5 0.00 0.00 0.00 18 1024.8
20240419193522 69 266 7.0 15.6 0.00 0.00 0.00 17 1024.9
20240419193015 69 236 6.1 12.2 0.00 0.00 0.00 20 1024.9
20240419192509 68 243 7.0 16.5 0.00 0.00 0.00 20 1024.9
20240419192505 68 136 7.8 16.5 0.00 0.00 0.00 19 1025.0
20240419191458 68 215 7.0 16.5 0.00 0.00 0.00 20 1025.0
20240419190952 67 246 7.8 17.4 0.00 0.00 0.00 21 1025.0
20240419190717 67 170 8.7 17.4 0.00 0.00 0.00 21 1025.2
20240419185939 67 202 7.8 16.5 0.00 0.00 0.00 22 1025.2
20240419185434 67 140 8.7 14.8 0.00 0.00 0.00 22 1025.3
20240419184928 67 252 7.8 14.8 0.00 0.00 0.00 20 1025.4
20240419184421 66 211 7.0 14.8 0.00 0.00 0.00 22 1025.4
20240419184146 66 203 7.0 14.8 0.00 0.00 0.00 23 1025.5
20240419183409 66 215 7.0 14.8 0.00 0.00 0.00 23 1025.7
20240419182903 65 237 7.8 16.5 0.00 0.00 0.00 25 1025.7
20240419182628 65 229 7.8 16.5 0.00 0.00 0.00 24 1025.8
20240419182124 65 226 7.0 11.3 0.00 0.00 0.00 24 1025.8
20240419181346 65 169 4.3 11.3 0.00 0.00 0.00 25 1025.9
20240419181112 64 355 5.2 13.9 0.00 0.00 0.00 25 1025.9
20240419180335 64 215 5.2 13.9 0.00 0.00 0.00 25 1026.0
20240419175827 64 196 5.2 9.6 0.00 0.00 0.00 25 1025.9
20240419175322 63 175 5.2 11.3 0.00 0.00 0.00 27 1026.0
20240419174816 63 208 5.2 11.3 0.00 0.00 0.00 28 1026.2
20240419174309 62 261 5.2 13.0 0.00 0.00 0.00 29 1026.2